Etusivu
METAR-TAF:

METAR-TAF

Lentoasemat :

Island Laken lentoasema

Island Lake, Manitoba, Kanada

Leveyspiiri: 53-51N, Pituuspiiri: 094-39W, korkeus merenpinnasta: 237 m

Tämänhetkinen sää

Tämä raportti tehtiin 4 tuntia ja 29 minuuttia sitten, kello 06.00 UTC
tyyntä
Lämpötila -20°C
Kosteus 70%
Ilmanpaine 1035 hPa
Näkyvyys: 24.1 km
Muutamia pilviä 3000 ft:n korkeudessa

METAR: CYIV 260600Z 00000KT 15SM FEW030 M20/M24 A3055 RMK SC2 WND ESTD SLP373

Aika: 04:29 (10:29 UTC)

Sääennuste

Tämä raportti tehtiin 3 tuntia ja 51 minuuttia sitten, kello 06.38 UTC
Ennuste voimassa 26. päivästä klo 07 UTC - 26. päivään klo 19 UTC
Tuuli 3 kn eri suunnista
Näkyvyys: 10 km
selkeää
Todennäköisyys 30%
26. päivästä klo 09 UTC - 26. päivään klo 15 UTC
Näkyvyys: 1.6 km
utua

TAF: CYIV 260638Z 2607/2619 VRB03KT P6SM SKC PROB30 2609/2615 1SM BR RMK NXT FCST BY 261300Z

Säähavainnot ja -ennusteet yli 4000 lentoasemalta (METAR- ja TAF-raportit).

Käytössä olevat sääasemat on merkitty karttaan keltaisilla ja punaisilla pisteillä.

Aseta hiiri pisteen päälle nähdäksesi sääaseman nimen.

Klikkaa sitten nähdäksesi säähavainnot ja -ennusteet.

Kartan vaihtaminen: klikkaa mustalla rastilla varustettuja vihreitä pisteitä, niin voit zoomata sisään; viivalla varustettua vihreää pistettä, niin voit zoomata ulos tai vihreitä nuolia, niin pääset viereisille kartoille.


METAR-TAF: